Jharsuguda, India
Current Conditions -  °F | °C
As of 9:30 AM on Sunday 23 Nov 2014 (Local Time) from VIBN Reporting Station
Haze Haze  
Wind Chill: 70°   Ceiling: Unl
Heat Index: 70°   Visibility: 1.1mi
Dew Point: 59°   Wind: 3mph
Humidity: 68%   Direction: 220°SW
Pressure: 30"   Gusts: NA
Location:  21.86°N, 84.02°E
Report Text: VIBN 230430Z 22003KT 1800 HZ NSC 21/15 Q1016
Loading
Personal Weather Stations






























Interactive Weather Map New forecast layout! Learn more

10-Day Weather Forecast

Advertisements
Track Severe Weather on mobile